createdAt,value
2023-05-10T00:02:48.593Z,98609.10
2023-05-10T00:07:17.948Z,98607.07
2023-05-10T00:11:47.512Z,98604.46
2023-05-10T00:16:24.589Z,98598.09
2023-05-10T00:20:56.218Z,98588.34
2023-05-10T00:25:15.873Z,98584.31
2023-05-10T00:29:47.932Z,98583.85
2023-05-10T00:34:11.218Z,98583.19
2023-05-10T00:38:38.334Z,98577.80
2023-05-10T00:43:11.156Z,98575.00
2023-05-10T00:47:55.958Z,98577.45
2023-05-10T00:52:20.022Z,98573.34
2023-05-10T00:56:43.309Z,98574.14
2023-05-10T01:01:07.464Z,98571.42
2023-05-10T01:05:52.130Z,98569.40
2023-05-10T01:10:17.221Z,98562.55
2023-05-10T01:14:40.420Z,98558.92
2023-05-10T01:19:13.971Z,98559.14
2023-05-10T01:23:54.812Z,98555.64
2023-05-10T01:28:42.344Z,98559.76
2023-05-10T01:33:18.601Z,98565.38
2023-05-10T01:37:43.617Z,98562.14
2023-05-10T01:42:11.204Z,98564.29
2023-05-10T01:46:38.498Z,98554.94
2023-05-10T01:51:08.276Z,98560.98
2023-05-10T01:55:37.818Z,98568.04
2023-05-10T01:59:43.454Z,98558.41
2023-05-10T02:04:06.541Z,98559.44
2023-05-10T02:08:38.110Z,98555.83
2023-05-10T02:13:01.184Z,98552.64
2023-05-10T02:17:36.361Z,98549.42
2023-05-10T02:22:40.863Z,98552.70
2023-05-10T02:27:06.904Z,98559.26
2023-05-10T02:31:36.214Z,98557.35
2023-05-10T02:36:25.775Z,98552.38
2023-05-10T02:41:03.101Z,98551.86
2023-05-10T02:45:36.065Z,98552.94
2023-05-10T02:50:16.899Z,98555.88
2023-05-10T02:55:16.308Z,98559.70
2023-05-10T02:59:45.909Z,98556.98
2023-05-10T03:04:22.534Z,98559.39
2023-05-10T03:08:56.311Z,98560.44
2023-05-10T03:14:13.221Z,98558.02
2023-05-10T03:18:46.223Z,98566.41
2023-05-10T03:23:52.921Z,98567.56
2023-05-10T03:28:59.730Z,98570.79
2023-05-10T03:34:12.453Z,98560.76
2023-05-10T03:39:24.855Z,98561.66
2023-05-10T03:44:37.641Z,98565.96
2023-05-10T03:49:54.849Z,98560.70
2023-05-10T03:54:24.274Z,98556.29
2023-05-10T03:59:28.130Z,98555.98
2023-05-10T04:04:15.480Z,98557.16
2023-05-10T04:09:26.308Z,98556.96
2023-05-10T04:14:32.027Z,98552.86
2023-05-10T04:19:36.749Z,98551.27
2023-05-10T04:24:46.919Z,98550.19
2023-05-10T04:29:47.546Z,98554.50
2023-05-10T04:34:59.363Z,98555.58
2023-05-10T04:40:05.881Z,98558.43
2023-05-10T04:45:09.817Z,98566.06
2023-05-10T04:50:13.627Z,98574.59
2023-05-10T04:55:17.322Z,98572.67
2023-05-10T05:00:01.246Z,98572.30
2023-05-10T05:05:14.238Z,98570.80
2023-05-10T05:10:18.272Z,98573.70
2023-05-10T05:15:40.814Z,98566.29
2023-05-10T05:20:45.734Z,98566.33
2023-05-10T05:25:57.749Z,98569.86
2023-05-10T05:31:02.636Z,98567.11
2023-05-10T05:36:06.739Z,98569.02
2023-05-10T05:41:22.214Z,98571.21
2023-05-10T05:46:35.852Z,98577.87
2023-05-10T05:51:50.637Z,98578.65
2023-05-10T05:56:47.720Z,98580.39
2023-05-10T06:01:51.830Z,98582.66
2023-05-10T06:07:01.660Z,98588.70
2023-05-10T06:12:05.701Z,98584.98
2023-05-10T06:17:11.523Z,98587.04
2023-05-10T06:22:02.732Z,98588.38
2023-05-10T06:27:06.470Z,98582.38
2023-05-10T06:32:24.034Z,98584.55
2023-05-10T06:37:30.801Z,98586.61
2023-05-10T06:42:34.605Z,98592.65
2023-05-10T06:47:32.849Z,98597.14
2023-05-10T06:52:42.520Z,98599.06
2023-05-10T06:57:46.634Z,98593.90
2023-05-10T07:02:51.245Z,98590.08
2023-05-10T07:08:02.636Z,98592.02
2023-05-10T07:13:17.643Z,98595.30
2023-05-10T07:18:29.385Z,98592.91
2023-05-10T07:23:36.556Z,98594.86
2023-05-10T07:28:46.624Z,98593.27
2023-05-10T07:34:05.018Z,98597.51
2023-05-10T07:39:18.591Z,98599.39
2023-05-10T07:44:22.899Z,98593.52
2023-05-10T07:49:38.866Z,98591.08
2023-05-10T07:54:43.792Z,98596.99
2023-05-10T07:59:56.089Z,98599.63
2023-05-10T08:05:03.072Z,98592.63
2023-05-10T08:10:07.905Z,98585.70
2023-05-10T08:15:15.232Z,98587.95
2023-05-10T08:20:31.270Z,98589.08
2023-05-10T08:25:50.244Z,98579.58
2023-05-10T08:30:55.969Z,98586.64
2023-05-10T08:36:14.957Z,98588.18
2023-05-10T08:41:25.562Z,98591.65
2023-05-10T08:47:15.578Z,98585.80
2023-05-10T08:52:32.237Z,98580.66
2023-05-10T08:57:58.178Z,98569.51
2023-05-10T09:03:00.714Z,98568.29
2023-05-10T09:08:03.105Z,98561.33
2023-05-10T09:13:07.182Z,98553.48
2023-05-10T09:18:12.894Z,98553.31
2023-05-10T09:23:22.415Z,98548.14
2023-05-10T09:28:37.592Z,98541.07
2023-05-10T09:33:56.284Z,98547.02
2023-05-10T09:38:47.051Z,98546.96
2023-05-10T09:44:08.092Z,98545.92
2023-05-10T09:49:27.280Z,98547.80
2023-05-10T09:54:30.673Z,98541.38
2023-05-10T09:59:54.694Z,98534.46
2023-05-10T10:04:50.952Z,98534.52
2023-05-10T10:09:53.365Z,98530.25
2023-05-10T10:15:00.624Z,98522.92
2023-05-10T10:20:13.242Z,98519.34
2023-05-10T10:25:15.759Z,98516.37
2023-05-10T10:30:25.950Z,98513.48
2023-05-10T10:35:32.740Z,98510.21
2023-05-10T10:40:37.201Z,98502.73
2023-05-10T10:45:43.086Z,98501.69
2023-05-10T10:50:45.551Z,98497.66
2023-05-10T10:56:00.379Z,98490.98
2023-05-10T11:01:22.738Z,98475.52
2023-05-10T11:06:41.495Z,98474.22
2023-05-10T11:11:56.126Z,98471.40
2023-05-10T11:17:21.373Z,98470.54
2023-05-10T11:22:32.427Z,98471.08
2023-05-10T11:27:35.987Z,98465.21
2023-05-10T11:32:38.526Z,98462.23
2023-05-10T11:37:44.659Z,98456.00
2023-05-10T11:42:48.067Z,98448.56
2023-05-10T11:47:52.269Z,98434.59
2023-05-10T11:53:10.327Z,98434.17
2023-05-10T11:58:14.654Z,98430.85
2023-05-10T12:03:36.462Z,98427.76
2023-05-10T12:08:53.434Z,98422.11
2023-05-10T12:14:07.685Z,98415.77
2023-05-10T12:19:17.905Z,98421.91
2023-05-10T12:24:22.400Z,98416.84
2023-05-10T12:28:44.184Z,98422.37
2023-05-10T12:33:21.915Z,98423.02
2023-05-10T12:37:56.390Z,98416.52
2023-05-10T12:42:18.542Z,98414.08
2023-05-10T12:46:51.153Z,98414.26
2023-05-10T12:51:23.837Z,98412.91
2023-05-10T12:55:52.772Z,98403.64
2023-05-10T13:00:17.570Z,98405.35
2023-05-10T13:04:48.194Z,98407.75
2023-05-10T13:09:17.128Z,98403.45
2023-05-10T13:14:20.862Z,98401.67
2023-05-10T13:19:29.055Z,98408.57
2023-05-10T13:24:29.740Z,98406.86
2023-05-10T13:29:52.502Z,98402.83
2023-05-10T13:34:57.727Z,98397.98
2023-05-10T13:40:20.005Z,98394.60
2023-05-10T13:45:36.671Z,98396.30
2023-05-10T13:50:44.698Z,98394.65
2023-05-10T14:00:16.526Z,98394.61
2023-05-10T14:05:26.874Z,98390.34
2023-05-10T14:10:50.243Z,98392.77
2023-05-10T14:15:54.044Z,98394.77
2023-05-10T14:21:05.425Z,98388.34
2023-05-10T14:26:11.308Z,98380.11
2023-05-10T14:31:28.553Z,98376.30
2023-05-10T14:36:34.482Z,98372.93
2023-05-10T14:41:48.148Z,98373.20
2023-05-10T14:47:07.331Z,98372.92
2023-05-10T14:52:27.950Z,98370.36
2023-05-10T14:57:16.533Z,98369.37
2023-05-10T15:02:31.929Z,98372.09
2023-05-10T15:07:49.912Z,98370.61
2023-05-10T15:17:29.785Z,98368.96
2023-05-10T15:22:48.791Z,98367.00
2023-05-10T15:27:53.532Z,98359.77
2023-05-10T15:33:10.968Z,98355.55
2023-05-10T15:38:25.855Z,98357.85
2023-05-10T15:43:35.832Z,98349.77
2023-05-10T15:48:48.166Z,98345.91
2023-05-10T15:53:33.912Z,98350.93
2023-05-10T15:58:48.091Z,98348.56
2023-05-10T16:03:37.602Z,98343.70
2023-05-10T16:08:56.764Z,98339.73
2023-05-10T16:14:07.744Z,98335.25
2023-05-10T16:19:41.005Z,98340.73
2023-05-10T16:25:20.115Z,98338.94
2023-05-10T16:30:28.306Z,98338.65
2023-05-10T16:35:37.310Z,98339.36
2023-05-10T16:40:47.768Z,98343.20
2023-05-10T16:46:00.266Z,98344.45
2023-05-10T16:51:05.263Z,98348.77
2023-05-10T16:56:22.105Z,98350.01
2023-05-10T17:01:11.152Z,98351.88
2023-05-10T17:06:24.130Z,98353.27
2023-05-10T17:11:36.714Z,98361.48
2023-05-10T17:16:43.581Z,98362.56
2023-05-10T17:21:53.536Z,98369.30
2023-05-10T17:26:59.456Z,98372.09
2023-05-10T17:32:09.620Z,98373.83
2023-05-10T17:37:13.791Z,98381.07
2023-05-10T17:42:18.601Z,98383.71
2023-05-10T17:47:22.034Z,98384.42
2023-05-10T17:51:46.140Z,98391.83
2023-05-10T17:56:10.163Z,98393.20
2023-05-10T18:00:34.216Z,98396.52
2023-05-10T18:04:59.945Z,98402.80
2023-05-10T18:09:24.120Z,98401.64
2023-05-10T18:13:49.151Z,98406.58
2023-05-10T18:18:13.059Z,98408.84
2023-05-10T18:22:37.120Z,98408.81
2023-05-10T18:27:02.674Z,98413.67
2023-05-10T18:31:26.748Z,98419.20
2023-05-10T18:35:50.816Z,98421.13
2023-05-10T18:40:15.101Z,98425.66
2023-05-10T18:44:39.029Z,98427.95
2023-05-10T18:49:02.988Z,98433.20
2023-05-10T18:53:26.998Z,98437.67
2023-05-10T18:57:52.039Z,98441.44
2023-05-10T19:02:18.059Z,98440.83
2023-05-10T19:06:44.106Z,98445.96
2023-05-10T19:11:08.149Z,98447.66
2023-05-10T19:15:33.192Z,98449.42
2023-05-10T19:19:57.649Z,98451.33
2023-05-10T19:24:22.679Z,98450.40
2023-05-10T19:28:46.640Z,98443.94
2023-05-10T19:33:05.538Z,98446.20
2023-05-10T19:37:29.760Z,98449.15
2023-05-10T19:41:53.777Z,98446.68
2023-05-10T19:46:20.124Z,98447.59
2023-05-10T19:50:46.421Z,98447.70
2023-05-10T19:55:10.262Z,98447.88
2023-05-10T19:59:35.185Z,98447.98
2023-05-10T20:04:00.228Z,98449.09
2023-05-10T20:08:24.261Z,98450.70
2023-05-10T20:12:49.234Z,98447.69
2023-05-10T20:17:16.360Z,98449.31
2023-05-10T20:21:43.253Z,98449.25
2023-05-10T20:26:07.352Z,98455.61
2023-05-10T20:30:30.364Z,98459.13
2023-05-10T20:34:55.419Z,98453.95
2023-05-10T20:39:20.324Z,98453.78
2023-05-10T20:43:45.303Z,98456.30
2023-05-10T20:48:09.264Z,98453.05
2023-05-10T20:52:33.260Z,98451.23
2023-05-10T20:56:58.143Z,98451.40
2023-05-10T21:01:22.226Z,98452.96
2023-05-10T21:05:46.335Z,98454.10
2023-05-10T21:10:10.264Z,98448.61
2023-05-10T21:14:34.215Z,98453.59
2023-05-10T21:18:59.310Z,98449.61
2023-05-10T21:23:23.338Z,98449.94
2023-05-10T21:27:50.531Z,98450.06
2023-05-10T21:32:16.383Z,98449.41
2023-05-10T21:36:40.320Z,98453.07
2023-05-10T21:41:04.388Z,98452.42
2023-05-10T21:45:28.205Z,98452.29
2023-05-10T21:49:52.140Z,98452.96
2023-05-10T21:54:16.014Z,98454.08
2023-05-10T21:58:40.412Z,98454.48
2023-05-10T22:03:06.509Z,98456.27
2023-05-10T22:07:10.268Z,98455.10
2023-05-10T22:11:35.466Z,98449.08
2023-05-10T22:16:00.434Z,98456.42
2023-05-10T22:20:25.123Z,98458.64
2023-05-10T22:24:42.068Z,98462.45
2023-05-10T22:29:05.982Z,98466.08
2023-05-10T22:33:30.859Z,98463.70
2023-05-10T22:37:54.796Z,98463.69
2023-05-10T22:42:18.867Z,98466.24
2023-05-10T22:46:41.738Z,98466.79
2023-05-10T22:51:06.911Z,98465.56
2023-05-10T22:55:30.836Z,98469.29
2023-05-10T22:59:56.824Z,98473.52
2023-05-10T23:04:21.907Z,98471.31
2023-05-10T23:08:46.359Z,98471.31
2023-05-10T23:13:10.285Z,98469.22
2023-05-10T23:17:34.712Z,98468.98
2023-05-10T23:21:58.892Z,98465.79
2023-05-10T23:26:22.902Z,98467.11
2023-05-10T23:30:47.047Z,98461.61
2023-05-10T23:35:11.253Z,98457.36
2023-05-10T23:39:37.424Z,98462.97
2023-05-10T23:44:01.270Z,98462.34
2023-05-10T23:48:27.191Z,98463.94
2023-05-10T23:52:52.120Z,98466.21
2023-05-10T23:57:22.815Z,98467.59
